Etusivu
METAR-TAF:

METAR-TAF

Lentoasemat :

Öljynporauslautta

Snorre B, Norja

Leveyspiiri: 61-32N, Pituuspiiri: 2-12E, korkeus merenpinnasta: 90 m

Tämänhetkinen sää

Tämä raportti tehtiin 11 minuuttia sitten, kello 20.50 UTC
Tuuli 3 kn luoteesta
Lämpötila 14°C
Kosteus 77%
Ilmanpaine 1014 hPa
Näkyvyys 10 km tai enemmän
ei pilviä alle 1500 m:ssä eikä cumulonimbus-pilviä

METAR: ENQR 222050Z AUTO 32003KT CAVOK 14/10 Q1014 W22/S4

Aika: 23:01 (21:01 UTC)


TAF: puuttuu

Säähavainnot ja -ennusteet yli 4000 lentoasemalta (METAR- ja TAF-raportit).

Käytössä olevat sääasemat on merkitty karttaan keltaisilla ja punaisilla pisteillä.

Aseta hiiri pisteen päälle nähdäksesi sääaseman nimen.

Klikkaa sitten nähdäksesi säähavainnot ja -ennusteet.

Kartan vaihtaminen: klikkaa mustalla rastilla varustettuja vihreitä pisteitä, niin voit zoomata sisään; viivalla varustettua vihreää pistettä, niin voit zoomata ulos tai vihreitä nuolia, niin pääset viereisille kartoille.


METAR-TAF: